createdAt,value
2022-08-27T00:01:16.370Z,22.24
2022-08-27T00:03:44.966Z,23.26
2022-08-27T00:06:17.103Z,22.87
2022-08-27T00:08:44.905Z,23.24
2022-08-27T00:11:12.505Z,23.05
2022-08-27T00:13:40.376Z,23.23
2022-08-27T00:16:10.373Z,23.34
2022-08-27T00:18:38.225Z,23.27
2022-08-27T00:21:04.995Z,22.79
2022-08-27T00:23:34.473Z,23.13
2022-08-27T00:26:01.446Z,23.29
2022-08-27T00:28:29.011Z,23.31
2022-08-27T00:30:56.189Z,23.25
2022-08-27T00:33:23.684Z,23.35
2022-08-27T00:35:51.208Z,23.30
2022-08-27T00:38:18.874Z,23.06
2022-08-27T00:40:45.657Z,23.20
2022-08-27T00:43:12.643Z,23.00
2022-08-27T00:45:43.713Z,23.22
2022-08-27T00:48:15.251Z,22.94
2022-08-27T00:50:49.574Z,23.09
2022-08-27T00:53:19.366Z,22.56
2022-08-27T00:55:50.773Z,23.17
2022-08-27T00:58:38.972Z,22.94
2022-08-27T01:01:08.849Z,22.72
2022-08-27T01:03:36.038Z,22.75
2022-08-27T01:06:05.867Z,22.69
2022-08-27T01:08:37.348Z,22.89
2022-08-27T01:11:05.873Z,22.68
2022-08-27T01:13:54.495Z,22.02
2022-08-27T01:16:25.312Z,22.16
2022-08-27T01:18:53.712Z,22.99
2022-08-27T01:21:30.776Z,23.00
2022-08-27T01:24:06.754Z,22.95
2022-08-27T01:26:33.572Z,22.72
2022-08-27T01:29:00.295Z,22.70
2022-08-27T01:31:27.257Z,22.74
2022-08-27T01:33:59.965Z,22.71
2022-08-27T01:36:27.180Z,22.65
2022-08-27T01:38:53.630Z,22.50
2022-08-27T01:41:21.248Z,22.14
2022-08-27T01:43:48.558Z,22.76
2022-08-27T01:46:15.048Z,22.59
2022-08-27T01:48:42.134Z,22.85
2022-08-27T01:51:09.801Z,22.64
2022-08-27T01:53:36.504Z,22.36
2022-08-27T01:56:04.706Z,22.39
2022-08-27T01:58:32.891Z,22.90
2022-08-27T02:01:08.600Z,22.85
2022-08-27T02:03:37.197Z,22.83
2022-08-27T02:06:07.156Z,22.69
2022-08-27T02:08:33.637Z,22.72
2022-08-27T02:11:01.233Z,22.55
2022-08-27T02:13:27.930Z,22.55
2022-08-27T02:15:54.553Z,22.47
2022-08-27T02:18:21.054Z,22.33
2022-08-27T02:20:48.513Z,22.87
2022-08-27T02:23:16.258Z,22.74
2022-08-27T02:25:42.740Z,22.79
2022-08-27T02:28:09.895Z,22.49
2022-08-27T02:30:37.385Z,22.44
2022-08-27T02:33:05.633Z,21.92
2022-08-27T02:35:34.476Z,22.55
2022-08-27T02:38:01.996Z,22.56
2022-08-27T02:40:28.853Z,21.95
2022-08-27T02:42:55.370Z,22.01
2022-08-27T02:45:21.868Z,21.90
2022-08-27T02:47:48.529Z,22.55
2022-08-27T02:50:15.267Z,22.34
2022-08-27T02:52:41.702Z,22.50
2022-08-27T02:55:08.575Z,21.73
2022-08-27T02:57:36.632Z,22.56
2022-08-27T03:00:06.342Z,22.37
2022-08-27T03:02:32.852Z,22.37
2022-08-27T03:04:59.382Z,22.06
2022-08-27T03:07:25.875Z,22.36
2022-08-27T03:09:52.762Z,21.90
2022-08-27T03:12:19.624Z,21.63
2022-08-27T03:14:49.130Z,21.63
2022-08-27T03:17:34.227Z,21.91
2022-08-27T03:20:02.007Z,22.43
2022-08-27T03:22:28.531Z,22.47
2022-08-27T03:24:56.359Z,22.01
2022-08-27T03:27:22.926Z,22.13
2022-08-27T03:29:49.371Z,22.38
2022-08-27T03:32:15.837Z,22.44
2022-08-27T03:34:42.390Z,21.71
2022-08-27T03:37:09.089Z,22.25
2022-08-27T03:39:35.579Z,22.27
2022-08-27T03:42:02.351Z,22.21
2022-08-27T03:44:28.921Z,22.36
2022-08-27T03:46:55.491Z,21.82
2022-08-27T03:49:22.206Z,22.46
2022-08-27T03:51:50.563Z,22.46
2022-08-27T03:54:17.159Z,21.89
2022-08-27T03:56:43.565Z,21.84
2022-08-27T03:59:10.115Z,22.34
2022-08-27T04:01:36.738Z,22.43
2022-08-27T04:04:03.686Z,21.89
2022-08-27T04:06:30.366Z,22.16
2022-08-27T04:08:56.765Z,21.98
2022-08-27T04:11:23.369Z,22.25
2022-08-27T04:13:49.908Z,21.96
2022-08-27T04:16:16.633Z,21.49
2022-08-27T04:18:43.070Z,21.57
2022-08-27T04:21:12.760Z,22.32
2022-08-27T04:23:40.114Z,22.23
2022-08-27T04:26:08.153Z,22.35
2022-08-27T04:28:38.386Z,21.85
2022-08-27T04:31:06.083Z,22.04
2022-08-27T04:33:32.548Z,21.70
2022-08-27T04:36:00.776Z,21.70
2022-08-27T04:38:27.857Z,21.90
2022-08-27T04:41:13.461Z,21.80
2022-08-27T04:43:40.018Z,22.07
2022-08-27T04:46:06.750Z,22.22
2022-08-27T04:48:33.298Z,22.35
2022-08-27T04:51:00.873Z,22.54
2022-08-27T04:53:30.564Z,22.38
2022-08-27T04:55:57.610Z,22.24
2022-08-27T04:58:26.121Z,22.20
2022-08-27T05:01:00.030Z,22.08
2022-08-27T05:03:26.766Z,22.03
2022-08-27T05:05:59.538Z,22.27
2022-08-27T05:08:25.958Z,21.94
2022-08-27T05:10:52.542Z,21.58
2022-08-27T05:13:21.282Z,22.11
2022-08-27T05:15:48.019Z,22.20
2022-08-27T05:18:14.666Z,22.12
2022-08-27T05:20:44.932Z,22.36
2022-08-27T05:23:12.970Z,22.09
2022-08-27T05:25:41.685Z,22.00
2022-08-27T05:28:09.426Z,21.89
2022-08-27T05:30:42.660Z,22.21
2022-08-27T05:33:10.245Z,21.53
2022-08-27T05:35:44.125Z,22.51
2022-08-27T05:38:11.364Z,22.40
2022-08-27T05:40:40.425Z,22.15
2022-08-27T05:43:07.109Z,22.50
2022-08-27T05:45:39.982Z,22.53
2022-08-27T05:48:10.716Z,21.75
2022-08-27T05:50:41.847Z,22.28
2022-08-27T05:53:08.297Z,22.32
2022-08-27T05:55:39.091Z,22.37
2022-08-27T05:58:07.059Z,22.44
2022-08-27T06:00:52.775Z,21.33
2022-08-27T06:03:19.218Z,22.18
2022-08-27T06:05:45.842Z,22.14
2022-08-27T06:08:12.569Z,22.22
2022-08-27T06:10:42.791Z,22.26
2022-08-27T06:13:09.506Z,22.10
2022-08-27T06:15:36.107Z,21.50
2022-08-27T06:18:05.188Z,21.96
2022-08-27T06:20:31.769Z,21.74
2022-08-27T06:22:58.475Z,21.41
2022-08-27T06:25:25.192Z,22.09
2022-08-27T06:27:51.740Z,21.80
2022-08-27T06:30:18.287Z,22.14
2022-08-27T06:32:44.719Z,22.15
2022-08-27T06:35:11.661Z,21.41
2022-08-27T06:37:38.091Z,22.08
2022-08-27T06:40:04.838Z,21.61
2022-08-27T06:42:31.623Z,21.07
2022-08-27T06:45:01.315Z,21.85
2022-08-27T06:47:27.783Z,21.96
2022-08-27T06:49:54.378Z,21.70
2022-08-27T06:52:20.823Z,22.23
2022-08-27T06:54:47.323Z,21.89
2022-08-27T06:57:13.723Z,22.40
2022-08-27T06:59:40.217Z,22.03
2022-08-27T07:02:07.911Z,21.76
2022-08-27T07:04:34.398Z,22.25
2022-08-27T07:07:02.503Z,22.01
2022-08-27T07:09:31.923Z,22.03
2022-08-27T07:11:59.019Z,22.33
2022-08-27T07:14:25.517Z,22.34
2022-08-27T07:16:52.321Z,21.99
2022-08-27T07:19:19.573Z,22.15
2022-08-27T07:21:48.270Z,22.32
2022-08-27T07:24:15.345Z,22.27
2022-08-27T07:26:43.633Z,21.96
2022-08-27T07:29:14.303Z,21.86
2022-08-27T07:31:41.931Z,22.23
2022-08-27T07:34:08.306Z,21.88
2022-08-27T07:36:35.566Z,22.18
2022-08-27T07:39:02.453Z,22.46
2022-08-27T07:41:31.225Z,22.51
2022-08-27T07:44:19.895Z,22.29
2022-08-27T07:46:48.592Z,22.27
2022-08-27T07:49:17.234Z,22.54
2022-08-27T07:51:43.820Z,22.48
2022-08-27T07:54:10.696Z,22.22
2022-08-27T07:56:37.159Z,22.36
2022-08-27T07:59:03.603Z,22.10
2022-08-27T08:01:30.149Z,22.23
2022-08-27T08:03:57.009Z,21.83
2022-08-27T08:06:23.474Z,21.93
2022-08-27T08:08:49.924Z,22.06
2022-08-27T08:11:18.285Z,22.33
2022-08-27T08:13:46.026Z,22.29
2022-08-27T08:16:13.400Z,22.34
2022-08-27T08:18:40.603Z,22.25
2022-08-27T08:21:10.325Z,22.31
2022-08-27T08:23:38.260Z,22.58
2022-08-27T08:26:08.253Z,22.37
2022-08-27T08:28:34.683Z,22.24
2022-08-27T08:31:01.558Z,22.28
2022-08-27T08:33:28.238Z,22.55
2022-08-27T08:35:54.896Z,22.38
2022-08-27T08:38:21.808Z,22.06
2022-08-27T08:40:54.474Z,22.38
2022-08-27T08:43:51.355Z,22.47
2022-08-27T08:46:27.265Z,22.05
2022-08-27T08:48:59.693Z,22.20
2022-08-27T08:51:36.503Z,22.17
2022-08-27T08:54:10.641Z,22.50
2022-08-27T08:56:56.831Z,22.60
2022-08-27T08:59:33.544Z,21.89
2022-08-27T09:02:00.628Z,22.68
2022-08-27T09:04:28.213Z,22.10
2022-08-27T09:07:09.495Z,22.46
2022-08-27T09:09:51.961Z,22.40
2022-08-27T09:12:27.047Z,22.36
2022-08-27T09:14:56.224Z,22.59
2022-08-27T09:17:23.636Z,22.39
2022-08-27T09:19:52.612Z,22.68
2022-08-27T09:22:56.427Z,22.75
2022-08-27T09:25:31.767Z,22.75
2022-08-27T09:28:27.835Z,22.88
2022-08-27T09:30:55.845Z,23.02
2022-08-27T09:33:22.667Z,22.91
2022-08-27T09:35:52.096Z,23.08
2022-08-27T09:38:28.427Z,23.08
2022-08-27T09:40:58.911Z,22.96
2022-08-27T09:43:28.361Z,22.55
2022-08-27T09:45:57.541Z,22.95
2022-08-27T09:48:33.082Z,22.87
2022-08-27T09:51:10.856Z,23.16
2022-08-27T09:53:44.019Z,23.17
2022-08-27T09:56:23.324Z,23.17
2022-08-27T09:58:53.734Z,22.67
2022-08-27T10:01:23.766Z,23.36
2022-08-27T10:03:51.018Z,23.14
2022-08-27T10:06:28.812Z,23.27
2022-08-27T10:09:07.003Z,22.97
2022-08-27T10:11:49.279Z,23.35
2022-08-27T10:14:26.417Z,23.53
2022-08-27T10:17:13.081Z,23.39
2022-08-27T10:19:42.542Z,23.26
2022-08-27T10:22:41.348Z,23.43
2022-08-27T10:25:22.830Z,23.48
2022-08-27T10:28:11.303Z,23.60
2022-08-27T10:31:05.857Z,23.65
2022-08-27T10:33:57.852Z,23.52
2022-08-27T10:37:04.385Z,23.80
2022-08-27T10:39:53.074Z,23.81
2022-08-27T10:42:48.770Z,23.84
2022-08-27T10:45:45.722Z,23.97
2022-08-27T10:48:14.906Z,24.00
2022-08-27T10:50:55.257Z,23.89
2022-08-27T10:53:44.686Z,23.90
2022-08-27T10:56:37.389Z,23.93
2022-08-27T10:59:06.852Z,23.84
2022-08-27T11:01:53.549Z,23.36
2022-08-27T11:04:29.665Z,23.98
2022-08-27T11:07:06.899Z,23.50
2022-08-27T11:09:39.452Z,24.08
2022-08-27T11:12:14.836Z,23.67
2022-08-27T11:15:00.316Z,23.75
2022-08-27T11:17:44.871Z,23.85
2022-08-27T11:20:33.316Z,24.16
2022-08-27T11:23:12.087Z,24.22
2022-08-27T11:26:11.884Z,24.25
2022-08-27T11:28:50.287Z,23.59
2022-08-27T11:31:24.361Z,24.28
2022-08-27T11:34:15.335Z,23.92
2022-08-27T11:37:03.215Z,24.42
2022-08-27T11:39:54.423Z,24.52
2022-08-27T11:42:50.327Z,24.30
2022-08-27T11:45:30.842Z,24.69
2022-08-27T11:48:00.768Z,24.82
2022-08-27T11:50:34.061Z,24.80
2022-08-27T11:53:05.831Z,24.38
2022-08-27T11:55:39.025Z,24.88
2022-08-27T11:58:17.890Z,24.86
2022-08-27T12:00:46.422Z,24.45
2022-08-27T12:03:18.644Z,24.81
2022-08-27T12:05:55.569Z,24.85
2022-08-27T12:08:21.962Z,24.90
2022-08-27T12:11:07.492Z,24.99
2022-08-27T12:13:49.092Z,24.87
2022-08-27T12:16:18.508Z,24.92
2022-08-27T12:19:06.346Z,25.06
2022-08-27T12:22:15.844Z,24.51
2022-08-27T12:24:42.320Z,24.94
2022-08-27T12:27:25.909Z,25.04
2022-08-27T12:29:56.551Z,24.54
2022-08-27T12:32:29.069Z,25.20
2022-08-27T12:35:15.762Z,25.22
2022-08-27T12:38:09.844Z,25.21
2022-08-27T12:40:46.623Z,25.30
2022-08-27T12:43:20.008Z,25.29
2022-08-27T12:45:51.071Z,25.10
2022-08-27T12:48:25.193Z,25.25
2022-08-27T12:51:04.300Z,24.98
2022-08-27T12:53:52.545Z,25.23
2022-08-27T12:56:41.336Z,25.16
2022-08-27T12:59:23.764Z,25.30
2022-08-27T13:02:09.750Z,25.44
2022-08-27T13:04:39.808Z,25.19
2022-08-27T13:07:06.369Z,25.13
2022-08-27T13:09:37.710Z,25.35
2022-08-27T13:12:14.110Z,24.90
2022-08-27T13:14:44.193Z,25.22
2022-08-27T13:17:19.870Z,24.81
2022-08-27T13:19:59.804Z,25.36
2022-08-27T13:22:31.590Z,24.79
2022-08-27T13:25:02.362Z,24.73
2022-08-27T13:27:32.411Z,24.81
2022-08-27T13:30:11.939Z,25.34
2022-08-27T13:32:54.043Z,25.35
2022-08-27T13:35:21.218Z,24.87
2022-08-27T13:37:51.487Z,24.74
2022-08-27T13:40:30.771Z,24.85
2022-08-27T13:43:08.878Z,25.36
2022-08-27T13:45:38.122Z,24.79
2022-08-27T13:48:05.623Z,24.67
2022-08-27T13:50:34.430Z,24.91
2022-08-27T13:53:29.964Z,25.49
2022-08-27T13:55:58.399Z,25.05
2022-08-27T13:58:31.104Z,25.44
2022-08-27T14:01:25.789Z,25.20
2022-08-27T14:04:09.573Z,25.45
2022-08-27T14:06:43.208Z,25.43
2022-08-27T14:09:25.433Z,25.61
2022-08-27T14:12:07.968Z,25.31
2022-08-27T14:17:34.940Z,25.44
2022-08-27T14:20:04.393Z,25.34
2022-08-27T14:22:36.579Z,25.39
2022-08-27T14:25:03.982Z,25.07
2022-08-27T14:27:31.805Z,25.26
2022-08-27T14:29:58.468Z,25.45
2022-08-27T14:32:24.922Z,25.38
2022-08-27T14:34:51.447Z,25.36
2022-08-27T14:37:17.897Z,24.79
2022-08-27T14:39:44.896Z,24.97
2022-08-27T14:42:12.153Z,25.47
2022-08-27T14:44:38.898Z,25.50
2022-08-27T14:47:09.501Z,25.35
2022-08-27T14:49:40.100Z,25.25
2022-08-27T14:52:07.960Z,25.42
2022-08-27T14:54:35.216Z,25.49
2022-08-27T14:57:03.540Z,25.18
2022-08-27T14:59:30.465Z,25.19
2022-08-27T15:01:58.548Z,25.30
2022-08-27T15:04:26.174Z,25.09
2022-08-27T15:06:54.600Z,25.37
2022-08-27T15:09:22.251Z,24.94
2022-08-27T15:11:49.322Z,25.27
2022-08-27T15:14:36.133Z,25.21
2022-08-27T15:17:21.400Z,25.11
2022-08-27T15:19:52.026Z,24.93
2022-08-27T15:22:21.997Z,24.98
2022-08-27T15:24:54.434Z,25.26
2022-08-27T15:27:21.340Z,24.96
2022-08-27T15:29:48.800Z,25.35
2022-08-27T15:32:29.167Z,25.01
2022-08-27T15:34:57.286Z,25.33
2022-08-27T15:37:24.533Z,25.24
2022-08-27T15:39:51.737Z,25.31
2022-08-27T15:42:18.521Z,24.69
2022-08-27T15:44:48.526Z,25.26
2022-08-27T15:47:19.340Z,25.13
2022-08-27T15:49:46.217Z,24.98
2022-08-27T15:52:16.164Z,25.09
2022-08-27T15:54:44.549Z,25.31
2022-08-27T15:57:11.278Z,25.21
2022-08-27T15:59:37.767Z,25.06
2022-08-27T16:02:07.398Z,25.31
2022-08-27T16:04:33.891Z,24.92
2022-08-27T16:07:00.316Z,24.87
2022-08-27T16:09:26.965Z,24.70
2022-08-27T16:11:54.397Z,25.23
2022-08-27T16:14:20.976Z,24.81
2022-08-27T16:16:50.012Z,25.14
2022-08-27T16:19:19.715Z,25.25
2022-08-27T16:21:47.333Z,25.29
2022-08-27T16:24:14.145Z,25.06
2022-08-27T16:26:40.879Z,24.64
2022-08-27T16:29:07.883Z,25.08
2022-08-27T16:31:36.952Z,25.20
2022-08-27T16:34:09.772Z,25.11
2022-08-27T16:36:36.193Z,24.92
2022-08-27T16:39:03.083Z,25.03
2022-08-27T16:41:29.588Z,25.08
2022-08-27T16:43:58.748Z,24.95
2022-08-27T16:46:25.397Z,24.59
2022-08-27T16:49:10.850Z,24.86
2022-08-27T16:51:38.098Z,24.83
2022-08-27T16:54:06.372Z,24.90
2022-08-27T16:56:37.081Z,25.10
2022-08-27T16:59:05.340Z,25.05
2022-08-27T17:01:33.228Z,25.16
2022-08-27T17:04:14.486Z,25.11
2022-08-27T17:06:45.131Z,24.95
2022-08-27T17:09:12.427Z,24.99
2022-08-27T17:11:41.868Z,25.04
2022-08-27T17:14:13.176Z,24.86
2022-08-27T17:16:41.509Z,24.95
2022-08-27T17:19:09.566Z,24.99
2022-08-27T17:21:37.300Z,24.86
2022-08-27T17:24:04.866Z,24.71
2022-08-27T17:26:37.333Z,24.73
2022-08-27T17:29:03.813Z,24.89
2022-08-27T17:31:33.987Z,24.97
2022-08-27T17:34:01.139Z,24.83
2022-08-27T17:36:30.423Z,24.99
2022-08-27T17:38:57.597Z,24.83
2022-08-27T17:41:39.400Z,24.74
2022-08-27T17:44:10.921Z,24.77
2022-08-27T17:46:37.409Z,24.92
2022-08-27T17:49:03.963Z,24.70
2022-08-27T17:51:32.051Z,24.89
2022-08-27T17:54:01.067Z,24.43
2022-08-27T17:56:29.138Z,24.90
2022-08-27T17:58:56.124Z,24.72
2022-08-27T18:01:31.593Z,24.72
2022-08-27T18:03:59.530Z,24.87
2022-08-27T18:06:29.415Z,25.05
2022-08-27T18:08:56.017Z,24.87
2022-08-27T18:11:22.911Z,24.46
2022-08-27T18:13:54.068Z,24.99
2022-08-27T18:16:20.921Z,24.97
2022-08-27T18:18:47.595Z,24.84
2022-08-27T18:21:25.206Z,24.46
2022-08-27T18:23:53.708Z,24.95
2022-08-27T18:26:21.692Z,24.76
2022-08-27T18:28:48.996Z,24.61
2022-08-27T18:31:18.747Z,24.44
2022-08-27T18:33:45.825Z,24.74
2022-08-27T18:36:12.713Z,24.73
2022-08-27T18:38:39.564Z,24.82
2022-08-27T18:41:08.459Z,24.63
2022-08-27T18:43:35.857Z,24.77
2022-08-27T18:46:03.553Z,24.70
2022-08-27T18:48:30.151Z,24.80
2022-08-27T18:50:59.412Z,24.71
2022-08-27T18:53:29.609Z,24.80
2022-08-27T18:55:57.492Z,23.94
2022-08-27T18:58:24.794Z,24.46
2022-08-27T19:00:55.697Z,24.56
2022-08-27T19:03:29.453Z,24.72
2022-08-27T19:05:56.299Z,24.70
2022-08-27T19:08:24.302Z,24.79
2022-08-27T19:10:51.173Z,24.76
2022-08-27T19:13:18.236Z,24.62
2022-08-27T19:15:51.769Z,24.47
2022-08-27T19:18:18.747Z,24.18
2022-08-27T19:20:45.173Z,24.01
2022-08-27T19:23:11.663Z,24.66
2022-08-27T19:25:38.413Z,24.51
2022-08-27T19:28:05.008Z,24.42
2022-08-27T19:30:31.605Z,24.55
2022-08-27T19:32:58.300Z,24.47
2022-08-27T19:35:25.262Z,24.40
2022-08-27T19:37:52.733Z,24.53
2022-08-27T19:40:19.308Z,24.61
2022-08-27T19:42:45.782Z,24.56
2022-08-27T19:45:12.216Z,24.29
2022-08-27T19:47:39.031Z,24.59
2022-08-27T19:50:05.931Z,24.55
2022-08-27T19:52:32.382Z,24.38
2022-08-27T19:55:14.777Z,24.52
2022-08-27T19:57:43.301Z,24.32
2022-08-27T20:00:12.610Z,24.35
2022-08-27T20:02:39.365Z,24.38
2022-08-27T20:05:17.992Z,24.26
2022-08-27T20:07:45.484Z,23.89
2022-08-27T20:10:11.998Z,24.36
2022-08-27T20:12:38.613Z,23.97
2022-08-27T20:15:06.373Z,24.54
2022-08-27T20:17:34.600Z,23.97
2022-08-27T20:20:01.226Z,24.11
2022-08-27T20:22:27.780Z,24.12
2022-08-27T20:24:54.255Z,24.04
2022-08-27T20:27:20.803Z,24.07
2022-08-27T20:29:47.547Z,24.15
2022-08-27T20:32:14.016Z,24.19
2022-08-27T20:34:40.573Z,24.41
2022-08-27T20:37:07.376Z,23.94
2022-08-27T20:39:34.070Z,24.25
2022-08-27T20:42:00.545Z,24.03
2022-08-27T20:44:27.028Z,24.37
2022-08-27T20:46:59.933Z,24.49
2022-08-27T20:49:29.210Z,24.46
2022-08-27T20:52:02.651Z,24.36
2022-08-27T20:54:30.333Z,24.37
2022-08-27T20:56:58.442Z,23.97
2022-08-27T20:59:43.505Z,23.91
2022-08-27T21:02:12.477Z,24.00
2022-08-27T21:04:47.970Z,24.06
2022-08-27T21:07:15.849Z,24.04
2022-08-27T21:09:56.585Z,24.41
2022-08-27T21:12:27.714Z,24.00
2022-08-27T21:14:55.894Z,24.32
2022-08-27T21:17:27.121Z,23.91
2022-08-27T21:19:54.424Z,23.75
2022-08-27T21:22:21.625Z,23.99
2022-08-27T21:24:48.471Z,23.73
2022-08-27T21:27:17.142Z,23.93
2022-08-27T21:29:44.884Z,24.06
2022-08-27T21:32:12.417Z,24.04
2022-08-27T21:34:39.223Z,24.16
2022-08-27T21:37:05.706Z,24.26
2022-08-27T21:39:33.107Z,24.06
2022-08-27T21:42:01.468Z,23.90
2022-08-27T21:44:29.144Z,23.99
2022-08-27T21:46:55.818Z,24.06
2022-08-27T21:49:22.292Z,23.54
2022-08-27T21:51:48.732Z,23.80
2022-08-27T21:54:15.312Z,23.89
2022-08-27T21:56:42.777Z,23.96
2022-08-27T21:59:09.548Z,23.82
2022-08-27T22:01:36.803Z,23.88
2022-08-27T22:04:03.783Z,23.87
2022-08-27T22:06:30.500Z,24.00
2022-08-27T22:08:57.102Z,23.61
2022-08-27T22:11:24.545Z,23.90
2022-08-27T22:13:52.045Z,23.69
2022-08-27T22:16:18.979Z,23.45
2022-08-27T22:18:45.607Z,23.52
2022-08-27T22:21:12.259Z,23.82
2022-08-27T22:23:38.773Z,23.68
2022-08-27T22:26:10.493Z,23.88
2022-08-27T22:28:36.992Z,23.35
2022-08-27T22:31:03.449Z,23.22
2022-08-27T22:33:29.933Z,23.80
2022-08-27T22:35:56.577Z,23.90
2022-08-27T22:38:23.043Z,23.34
2022-08-27T22:40:51.307Z,23.95
2022-08-27T22:43:19.415Z,23.51
2022-08-27T22:45:45.889Z,23.35
2022-08-27T22:48:12.738Z,23.77
2022-08-27T22:50:39.369Z,23.88
2022-08-27T22:53:05.941Z,23.75
2022-08-27T22:55:32.438Z,23.30
2022-08-27T22:57:58.879Z,23.74
2022-08-27T23:00:29.996Z,23.89
2022-08-27T23:02:56.927Z,23.89
2022-08-27T23:05:24.483Z,23.80
2022-08-27T23:07:53.237Z,23.81
2022-08-27T23:10:22.353Z,23.87
2022-08-27T23:12:48.883Z,23.78
2022-08-27T23:15:17.762Z,23.83
2022-08-27T23:17:44.698Z,23.56
2022-08-27T23:20:11.848Z,23.68
2022-08-27T23:22:38.852Z,23.41
2022-08-27T23:25:26.322Z,23.79
2022-08-27T23:27:53.443Z,23.41
2022-08-27T23:30:20.119Z,23.05
2022-08-27T23:32:53.755Z,23.00
2022-08-27T23:35:22.575Z,23.62
2022-08-27T23:37:50.417Z,22.98
2022-08-27T23:40:18.262Z,23.25
2022-08-27T23:42:45.643Z,23.44
2022-08-27T23:45:16.287Z,23.19
2022-08-27T23:47:42.969Z,23.30
2022-08-27T23:50:10.579Z,23.48
2022-08-27T23:52:37.912Z,23.33
2022-08-27T23:55:05.161Z,23.25
2022-08-27T23:57:31.647Z,22.96
2022-08-27T23:59:58.156Z,23.04
